Time;durP1;ratioP1;P1;durP2;ratioP2;P2;SDS_P1;SDS_P2;PMS_P1;PMS_P2;Temp;Humidity;BMP_temperature;BMP_pressure;BME280_temperature;BME280_humidity;BME280_pressure;Samples;Min_cycle;Max_cycle;Signal;HPM_P1;HPM_P2
2023/05/25 00:00:26;;;;;;;6.85;5.13;;;;;;;8.70;88.94;100670.78;10379998;28;20046;-69
2023/05/25 00:05:28;;;;;;;12.25;5.40;;;;;;;8.48;89.46;100672.81;10378573;28;20034;-69
2023/05/25 00:10:29;;;;;;;11.10;5.85;;;;;;;8.13;92.43;100664.50;10381885;28;20470;-70
2023/05/25 00:15:31;;;;;;;7.88;5.38;;;;;;;7.82;95.71;100668.31;10379918;28;20092;-69
2023/05/25 00:20:33;;;;;;;11.60;5.97;;;;;;;8.09;92.96;100671.50;10379271;28;20495;-69
2023/05/25 00:25:35;;;;;;;6.85;5.72;;;;;;;7.91;94.86;100675.19;10379463;28;20046;-69
2023/05/25 00:30:37;;;;;;;9.85;6.63;;;;;;;7.79;95.75;100678.84;10377680;28;20470;-70
2023/05/25 00:35:41;;;;;;;12.90;5.45;;;;;;;7.71;96.96;100669.31;10378372;28;20089;-70
2023/05/25 00:40:44;;;;;;;6.15;5.15;;;;;;;7.76;97.41;100676.25;10376990;28;20069;-70
2023/05/25 00:45:46;;;;;;;12.07;6.70;;;;;;;7.83;95.62;100674.41;10376676;28;20050;-70
2023/05/25 00:50:53;;;;;;;9.55;5.88;;;;;;;8.09;94.91;100669.75;10376500;28;20054;-69
2023/05/25 00:56:10;;;;;;;8.65;6.03;;;;;;;8.14;92.29;100656.63;10376523;28;20463;-69
2023/05/25 01:01:14;;;;;;;10.15;5.93;;;;;;;8.03;93.16;100664.59;10377727;28;20085;-69
2023/05/25 01:06:17;;;;;;;6.72;5.93;;;;;;;7.72;95.11;100666.69;10377376;28;20073;-69
2023/05/25 01:11:25;;;;;;;8.55;5.45;;;;;;;7.44;98.70;100676.53;10376978;28;20084;-69
2023/05/25 01:16:28;;;;;;;8.82;5.95;;;;;;;7.72;96.80;100673.66;10375614;28;20050;-69
2023/05/25 01:22:00;;;;;;;7.03;5.88;;;;;;;7.72;95.11;100673.66;10376625;28;20045;-69
2023/05/25 01:27:31;;;;;;;10.55;6.22;;;;;;;7.19;98.99;100682.84;10376457;28;20092;-69
2023/05/25 01:32:34;;;;;;;7.18;5.78;;;;;;;7.10;99.65;100693.38;10371148;28;20411;-69
2023/05/25 01:37:36;;;;;;;6.35;5.68;;;;;;;7.55;96.45;100693.00;10376376;28;20050;-69
2023/05/25 01:42:38;;;;;;;10.02;6.05;;;;;;;7.47;96.95;100688.72;10374769;28;20054;-69
2023/05/25 01:47:49;;;;;;;8.43;5.97;;;;;;;7.11;99.85;100688.13;10375735;28;20070;-69
2023/05/25 01:53:14;;;;;;;9.25;5.68;;;;;;;7.20;99.53;100687.19;10376236;28;20116;-69
2023/05/25 01:58:18;;;;;;;8.23;6.15;;;;;;;7.09;100.00;100682.06;10374032;28;20052;-69
2023/05/25 02:03:20;;;;;;;7.90;5.40;;;;;;;7.31;99.19;100686.25;10373661;28;20133;-69
2023/05/25 02:08:23;;;;;;;11.07;6.05;;;;;;;7.37;97.32;100684.44;10373667;28;20057;-69
2023/05/25 02:13:25;;;;;;;15.35;6.40;;;;;;;7.02;98.95;100691.66;10373521;28;20065;-69
2023/05/25 02:18:27;;;;;;;8.82;6.25;;;;;;;6.80;100.00;100690.94;10373256;28;20048;-69
2023/05/25 02:23:29;;;;;;;10.38;7.38;;;;;;;6.72;100.00;100697.09;10373237;28;20050;-69
2023/05/25 02:28:30;;;;;;;6.65;5.97;;;;;;;6.95;100.00;100708.28;10372924;28;20137;-69
2023/05/25 02:33:32;;;;;;;12.02;6.57;;;;;;;6.85;100.00;100708.34;10372945;28;20133;-69
2023/05/25 02:38:34;;;;;;;11.15;7.00;;;;;;;6.75;100.00;100711.00;10374064;28;20120;-69
2023/05/25 02:43:36;;;;;;;7.43;6.72;;;;;;;6.95;99.96;100718.75;10372886;28;20515;-69
2023/05/25 02:48:38;;;;;;;12.27;6.65;;;;;;;6.77;100.00;100706.66;10372818;28;20052;-69
2023/05/25 02:53:40;;;;;;;10.45;6.53;;;;;;;7.14;98.05;100711.66;10372424;28;20144;-69
2023/05/25 02:58:42;;;;;;;9.75;6.70;;;;;;;6.95;99.43;100723.97;10372482;28;20046;-69
2023/05/25 03:03:50;;;;;;;6.85;6.15;;;;;;;6.63;100.00;100720.66;10373138;28;20050;-69
2023/05/25 03:08:53;;;;;;;8.30;7.40;;;;;;;6.45;100.00;100717.22;10373740;28;20129;-69
2023/05/25 03:13:55;;;;;;;7.50;6.57;;;;;;;6.43;100.00;100720.75;10374131;28;20500;-69
2023/05/25 03:18:57;;;;;;;10.27;8.23;;;;;;;6.73;100.00;100730.16;10377924;28;20042;-69
2023/05/25 03:23:59;;;;;;;7.50;6.60;;;;;;;6.67;100.00;100738.91;10379869;28;20113;-68
2023/05/25 03:29:01;;;;;;;9.73;7.45;;;;;;;6.93;100.00;100733.56;10379749;28;20054;-68
2023/05/25 03:34:03;;;;;;;8.27;6.93;;;;;;;6.78;100.00;100738.88;10379586;28;20042;-67
2023/05/25 03:39:08;;;;;;;8.82;6.78;;;;;;;6.96;100.00;100740.53;10379582;28;20057;-68
2023/05/25 03:44:11;;;;;;;7.47;6.65;;;;;;;6.79;100.00;100738.84;10379300;28;20042;-68
2023/05/25 03:49:14;;;;;;;7.57;6.80;;;;;;;7.15;100.00;100756.97;10379460;28;20049;-68
2023/05/25 03:54:16;;;;;;;8.50;7.70;;;;;;;7.26;100.00;100762.97;10378887;28;20415;-67
2023/05/25 03:59:17;;;;;;;9.52;7.85;;;;;;;7.30;100.00;100764.69;10378547;28;20103;-68
2023/05/25 04:04:20;;;;;;;10.23;8.10;;;;;;;7.17;100.00;100774.38;10425724;23;20402;-72
2023/05/25 04:09:22;;;;;;;8.90;8.00;;;;;;;7.14;100.00;100763.94;10420380;28;20056;-72
2023/05/25 04:14:24;;;;;;;8.40;7.60;;;;;;;7.24;100.00;100769.97;10422089;28;20067;-72
2023/05/25 04:19:26;;;;;;;11.02;7.93;;;;;;;7.42;100.00;100782.91;10421374;28;20049;-72
2023/05/25 04:24:28;;;;;;;9.55;8.55;;;;;;;7.49;100.00;100784.63;10419969;28;20057;-72
2023/05/25 04:29:30;;;;;;;11.85;8.50;;;;;;;7.81;100.00;100783.50;10420081;28;20042;-72
2023/05/25 04:34:53;;;;;;;11.10;8.63;;;;;;;7.95;99.23;100775.53;10418871;28;20053;-72
2023/05/25 04:40:07;;;;;;;16.45;9.18;;;;;;;8.21;96.90;100778.75;10427524;28;20115;-72
2023/05/25 04:45:09;;;;;;;10.20;7.75;;;;;;;8.58;94.40;100779.25;10425560;28;20567;-72
2023/05/25 04:50:11;;;;;;;8.43;7.25;;;;;;;8.75;93.10;100778.19;10426917;28;20053;-72
2023/05/25 04:55:13;;;;;;;9.77;8.32;;;;;;;8.57;93.83;100782.75;10425389;28;20103;-72
2023/05/25 05:00:19;;;;;;;12.07;9.50;;;;;;;8.54;93.21;100774.06;10426240;28;20053;-72
2023/05/25 05:05:22;;;;;;;11.27;9.00;;;;;;;8.83;91.72;100765.84;10426436;28;20112;-72
2023/05/25 05:10:25;;;;;;;12.45;9.60;;;;;;;9.10;90.96;100762.84;10411116;28;20065;-72
2023/05/25 05:15:30;;;;;;;9.90;8.80;;;;;;;9.21;89.86;100765.34;10428513;28;20128;-72
2023/05/25 05:20:33;;;;;;;7.95;7.22;;;;;;;9.26;89.54;100762.66;10426287;28;20107;-73
2023/05/25 05:25:36;;;;;;;13.82;8.13;;;;;;;9.59;88.54;100762.09;10426696;28;20042;-72
2023/05/25 05:30:39;;;;;;;8.90;7.22;;;;;;;9.91;86.35;100763.31;10425657;28;20080;-72
2023/05/25 05:35:43;;;;;;;11.98;9.13;;;;;;;10.13;86.62;100776.94;10426323;28;20034;-72
2023/05/25 05:40:52;;;;;;;13.30;9.13;;;;;;;10.98;80.81;100779.69;10424164;28;20431;-72
2023/05/25 05:45:56;;;;;;;12.68;8.65;;;;;;;11.35;79.09;100778.84;10425711;28;20052;-72
2023/05/25 05:50:58;;;;;;;10.43;8.50;;;;;;;11.66;76.26;100778.13;10428427;28;20068;-72
2023/05/25 05:56:01;;;;;;;12.88;7.68;;;;;;;12.31;74.01;100780.91;10423078;28;20042;-72
2023/05/25 06:01:07;;;;;;;14.52;8.57;;;;;;;13.06;70.29;100782.25;10421451;28;20053;-72
2023/05/25 06:06:10;;;;;;;8.10;6.50;;;;;;;13.97;65.43;100790.81;10420420;28;20557;-72
2023/05/25 06:11:12;;;;;;;11.48;6.90;;;;;;;14.09;65.37;100777.19;10423922;28;20065;-72
2023/05/25 06:16:15;;;;;;;11.88;5.95;;;;;;;14.42;64.42;100790.13;10421399;28;20072;-72
2023/05/25 06:21:17;;;;;;;9.27;6.15;;;;;;;14.29;63.75;100788.84;10423605;28;20120;-72
2023/05/25 06:26:22;;;;;;;12.18;5.80;;;;;;;14.26;63.86;100773.97;10422050;28;20056;-72
2023/05/25 06:31:25;;;;;;;8.98;5.53;;;;;;;14.66;62.61;100779.66;10421802;28;20120;-72
2023/05/25 06:36:27;;;;;;;12.63;5.68;;;;;;;14.75;62.15;100782.81;10417803;28;20041;-71
2023/05/25 06:41:29;;;;;;;6.43;5.13;;;;;;;15.46;58.51;100782.75;10403536;28;20128;-72
2023/05/25 06:46:32;;;;;;;6.45;4.95;;;;;;;15.85;58.71;100782.94;10403312;28;20136;-71
2023/05/25 06:51:34;;;;;;;7.38;5.22;;;;;;;16.07;58.88;100783.75;10421712;28;20064;-72
2023/05/25 06:56:36;;;;;;;11.70;5.70;;;;;;;16.35;57.64;100786.06;10430508;28;20064;-72
2023/05/25 07:01:38;;;;;;;8.13;5.57;;;;;;;16.78;55.07;100789.50;10433322;28;20112;-72
2023/05/25 07:06:40;;;;;;;7.38;5.72;;;;;;;16.69;56.19;100789.91;10433281;28;20048;-72
2023/05/25 07:11:42;;;;;;;9.35;5.40;;;;;;;16.63;56.08;100785.69;10430799;28;20050;-72
2023/05/25 07:16:44;;;;;;;7.80;4.38;;;;;;;16.67;56.00;100786.44;10430140;28;20041;-72
2023/05/25 07:21:46;;;;;;;8.82;4.10;;;;;;;16.48;56.73;100802.31;10428150;28;20068;-72
2023/05/25 07:26:48;;;;;;;8.23;4.10;;;;;;;16.30;58.84;100789.88;10427222;28;20060;-72
2023/05/25 07:31:51;;;;;;;8.23;3.50;;;;;;;16.46;57.17;100790.03;10429260;28;20446;-72
2023/05/25 07:36:53;;;;;;;5.80;3.92;;;;;;;16.44;54.07;100787.47;10433950;28;20506;-72
2023/05/25 07:41:55;;;;;;;7.53;3.08;;;;;;;17.04;52.47;100777.66;10431855;28;20107;-72
2023/05/25 07:46:57;;;;;;;6.10;3.30;;;;;;;16.15;53.85;100781.59;10423564;28;20038;-73
2023/05/25 07:51:58;;;;;;;6.25;3.38;;;;;;;16.81;52.79;100781.38;10424246;28;20084;-73
2023/05/25 07:57:00;;;;;;;7.00;3.10;;;;;;;17.21;50.14;100783.97;10424309;28;20084;-71
2023/05/25 08:02:02;;;;;;;7.05;3.20;;;;;;;17.69;48.79;100791.38;10423961;28;20049;-73
2023/05/25 08:07:04;;;;;;;8.55;3.42;;;;;;;18.14;49.77;100798.03;10423702;28;20048;-72
2023/05/25 08:12:06;;;;;;;6.88;3.13;;;;;;;17.91;48.18;100796.53;10422608;28;20049;-71
2023/05/25 08:17:28;;;;;;;7.10;3.65;;;;;;;18.03;48.75;100801.25;10422851;28;20067;-71
2023/05/25 08:22:30;;;;;;;6.25;3.17;;;;;;;18.21;47.56;100795.94;10423194;28;20048;-73
2023/05/25 08:27:31;;;;;;;8.02;3.30;;;;;;;17.85;46.57;100797.72;10422717;28;20045;-72
2023/05/25 08:32:36;;;;;;;5.63;3.60;;;;;;;18.74;47.66;100801.13;10423067;28;20121;-72
2023/05/25 08:37:38;;;;;;;7.20;3.10;;;;;;;18.60;46.61;100806.31;10422415;28;20456;-72
2023/05/25 08:42:44;;;;;;;8.55;4.05;;;;;;;17.46;50.26;100803.16;10421543;28;20052;-72
2023/05/25 08:47:47;;;;;;;5.32;3.40;;;;;;;18.15;48.65;100813.09;10422293;28;20437;-72
2023/05/25 08:52:52;;;;;;;6.25;3.20;;;;;;;18.10;49.98;100801.78;10422131;28;20069;-72
2023/05/25 08:58:01;;;;;;;5.63;3.55;;;;;;;18.82;48.61;100803.41;10420657;28;20053;-72
2023/05/25 09:03:08;;;;;;;7.45;3.17;;;;;;;18.54;46.76;100801.28;10419960;28;20415;-72
2023/05/25 09:08:10;;;;;;;7.55;2.85;;;;;;;19.02;47.28;100811.16;10423099;28;20092;-73
2023/05/25 09:13:12;;;;;;;6.10;3.53;;;;;;;19.72;43.97;100814.38;10421804;28;20073;-73
2023/05/25 09:18:23;;;;;;;4.70;2.80;;;;;;;19.63;45.77;100812.25;10421916;28;20411;-71
2023/05/25 09:23:25;;;;;;;5.97;3.33;;;;;;;19.35;46.55;100810.25;10421961;28;20095;-72
2023/05/25 09:28:27;;;;;;;8.05;3.67;;;;;;;20.23;45.97;100811.41;10403289;28;20099;-72
2023/05/25 09:33:29;;;;;;;6.40;3.47;;;;;;;20.21;43.51;100816.00;10421370;28;20034;-72
2023/05/25 09:38:31;;;;;;;6.75;3.20;;;;;;;19.41;45.94;100818.75;10418594;28;20050;-72
2023/05/25 09:43:34;;;;;;;5.28;3.58;;;;;;;19.15;46.72;100833.53;10418250;28;20068;-71
2023/05/25 09:48:49;;;;;;;5.97;3.53;;;;;;;19.37;45.48;100824.34;10420109;28;20541;-72
2023/05/25 09:53:51;;;;;;;4.05;2.90;;;;;;;19.73;44.00;100828.56;10419732;28;20041;-72
2023/05/25 09:58:53;;;;;;;6.57;3.72;;;;;;;19.62;45.87;100832.72;10419626;28;20041;-71
2023/05/25 10:03:55;;;;;;;6.38;3.90;;;;;;;19.85;47.61;100835.88;10418921;28;20038;-71
2023/05/25 10:09:10;;;;;;;7.10;3.53;;;;;;;19.95;45.81;100845.06;10417425;28;20561;-70
2023/05/25 10:14:16;;;;;;;6.30;3.55;;;;;;;20.21;44.96;100829.34;10417210;28;20041;-71
2023/05/25 10:19:31;;;;;;;6.25;3.03;;;;;;;21.37;42.37;100823.06;10420448;28;20069;-71
2023/05/25 10:24:46;;;;;;;5.78;3.17;;;;;;;21.15;43.38;100834.22;10420467;28;20045;-70
2023/05/25 10:29:49;;;;;;;7.22;3.67;;;;;;;21.54;41.24;100824.66;10418814;28;20136;-71
2023/05/25 10:34:52;;;;;;;7.38;3.75;;;;;;;21.63;41.97;100818.69;10420180;28;20045;-71
2023/05/25 10:39:56;;;;;;;6.53;3.25;;;;;;;21.36;41.98;100821.34;10419912;28;20073;-71
2023/05/25 10:44:59;;;;;;;6.32;3.42;;;;;;;21.45;40.46;100817.22;10419361;28;20053;-71
2023/05/25 10:50:02;;;;;;;5.28;3.30;;;;;;;20.91;41.99;100817.09;10419542;28;20037;-72
2023/05/25 10:55:04;;;;;;;4.85;3.38;;;;;;;20.36;42.49;100818.63;10418770;28;20083;-71
2023/05/25 11:00:07;;;;;;;6.72;3.10;;;;;;;21.39;42.55;100812.28;10417741;28;20049;-72
2023/05/25 11:05:39;;;;;;;6.13;2.90;;;;;;;21.26;40.15;100805.97;10419670;28;20038;-72
2023/05/25 11:10:47;;;;;;;6.95;2.90;;;;;;;21.45;42.13;100795.84;10421263;28;20543;-71
2023/05/25 11:16:16;;;;;;;3.40;2.60;;;;;;;20.96;42.05;100798.09;10419719;28;20041;-71
2023/05/25 11:21:29;;;;;;;3.65;2.60;;;;;;;21.24;41.10;100797.19;10416967;28;20502;-71
2023/05/25 11:26:34;;;;;;;6.18;3.22;;;;;;;21.70;39.61;100788.88;10416558;28;20041;-72
2023/05/25 11:31:36;;;;;;;5.83;3.17;;;;;;;22.01;41.45;100787.69;10418526;28;20045;-72
2023/05/25 11:36:44;;;;;;;3.13;2.30;;;;;;;21.40;41.32;100795.28;10418289;28;20061;-72
2023/05/25 11:41:48;;;;;;;4.55;2.65;;;;;;;21.87;39.98;100785.94;10425800;28;20107;-72
2023/05/25 11:46:52;;;;;;;7.82;3.15;;;;;;;21.41;43.04;100784.47;10428909;28;20050;-71
2023/05/25 11:51:56;;;;;;;5.35;3.22;;;;;;;22.10;38.60;100777.22;10428945;28;20049;-72
2023/05/25 11:56:58;;;;;;;5.18;2.58;;;;;;;22.85;40.13;100779.19;10427198;28;20041;-71
2023/05/25 12:02:02;;;;;;;7.15;3.28;;;;;;;21.71;40.30;100777.22;10426147;28;20049;-71
2023/05/25 12:07:06;;;;;;;3.42;2.60;;;;;;;21.69;39.26;100760.38;10427204;28;20053;-72
2023/05/25 12:12:08;;;;;;;4.80;2.33;;;;;;;22.45;39.17;100762.41;10409735;28;20050;-71
2023/05/25 12:17:10;;;;;;;3.65;2.42;;;;;;;22.10;39.38;100765.66;10426963;28;20038;-72
2023/05/25 12:22:13;;;;;;;5.05;3.13;;;;;;;22.27;36.35;100762.72;10426652;28;20041;-72
2023/05/25 12:27:17;;;;;;;2.88;2.40;;;;;;;22.07;39.72;100750.63;10429155;28;20400;-72
2023/05/25 12:32:19;;;;;;;4.18;2.72;;;;;;;22.06;38.22;100748.94;10429511;28;20144;-72
2023/05/25 12:37:22;;;;;;;4.28;2.72;;;;;;;22.01;38.87;100742.19;10427609;28;20411;-72
2023/05/25 12:42:30;;;;;;;4.68;2.20;;;;;;;22.30;36.46;100746.41;10426105;28;20059;-72
2023/05/25 12:47:31;;;;;;;4.80;2.70;;;;;;;21.59;37.54;100736.94;10427681;28;20104;-71
2023/05/25 12:52:42;;;;;;;3.88;2.20;;;;;;;22.16;38.15;100733.97;10427043;28;20507;-72
2023/05/25 12:57:46;;;;;;;4.60;2.83;;;;;;;22.12;37.68;100732.47;10427731;28;20504;-72
2023/05/25 13:02:49;;;;;;;4.82;2.22;;;;;;;22.10;38.00;100731.69;10429488;28;20045;-72
2023/05/25 13:07:53;;;;;;;4.68;2.60;;;;;;;21.58;38.92;100726.34;10426123;28;20045;-72
2023/05/25 13:12:57;;;;;;;5.22;2.70;;;;;;;22.27;37.20;100718.97;10426744;28;20453;-72
2023/05/25 13:17:59;;;;;;;5.03;2.13;;;;;;;22.58;37.19;100731.94;10426684;28;20087;-71
2023/05/25 13:23:02;;;;;;;6.72;2.75;;;;;;;21.37;37.98;100718.75;10425683;28;20053;-71
2023/05/25 13:28:05;;;;;;;4.50;2.70;;;;;;;21.73;37.62;100729.78;10425846;28;20052;-71
2023/05/25 13:33:08;;;;;;;4.60;2.30;;;;;;;21.42;38.92;100715.78;10425323;28;20084;-72
2023/05/25 13:38:10;;;;;;;4.47;2.45;;;;;;;21.49;39.68;100716.25;10426944;28;20478;-73
2023/05/25 13:43:15;;;;;;;6.72;2.78;;;;;;;21.52;40.44;100711.56;10426402;28;20042;-71
2023/05/25 13:48:18;;;;;;;4.30;2.00;;;;;;;21.96;39.77;100701.47;10425287;28;20076;-71
2023/05/25 13:53:20;;;;;;;4.40;2.70;;;;;;;21.73;38.98;100700.34;10425777;28;20069;-71
2023/05/25 13:58:23;;;;;;;4.50;2.10;;;;;;;21.81;37.79;100701.56;10425287;28;20041;-72
2023/05/25 14:03:26;;;;;;;5.15;2.20;;;;;;;21.63;38.18;100692.97;10423807;28;20064;-72
2023/05/25 14:08:29;;;;;;;7.15;2.58;;;;;;;21.95;37.96;100689.91;10423927;28;20064;-72
2023/05/25 14:13:32;;;;;;;3.97;2.63;;;;;;;21.47;38.69;100691.41;10422508;28;20396;-71
2023/05/25 14:18:34;;;;;;;4.50;2.28;;;;;;;22.04;37.55;100686.59;10423134;28;20054;-72
2023/05/25 14:23:36;;;;;;;5.53;2.50;;;;;;;21.94;37.67;100690.88;10422669;28;20053;-72
2023/05/25 14:28:38;;;;;;;3.97;2.63;;;;;;;22.03;38.65;100684.03;10421480;28;20407;-72
2023/05/25 14:33:40;;;;;;;6.60;2.83;;;;;;;21.41;37.98;100680.16;10420114;28;20045;-71
2023/05/25 14:38:43;;;;;;;4.32;2.55;;;;;;;21.33;39.11;100682.47;10420622;28;20037;-72
2023/05/25 14:43:45;;;;;;;4.40;3.35;;;;;;;21.31;38.43;100676.41;10422691;28;20037;-72
2023/05/25 14:48:48;;;;;;;4.35;2.40;;;;;;;21.37;38.32;100680.47;10424360;28;20041;-71
2023/05/25 14:53:51;;;;;;;6.90;2.65;;;;;;;22.37;35.99;100677.22;10425984;28;20041;-71
2023/05/25 14:58:54;;;;;;;3.90;1.95;;;;;;;22.82;36.51;100678.41;10421553;28;20049;-71
2023/05/25 15:03:56;;;;;;;3.20;2.30;;;;;;;22.17;35.94;100681.28;10421948;28;20415;-72
2023/05/25 15:08:58;;;;;;;5.68;3.10;;;;;;;22.55;36.53;100670.53;10423683;28;20052;-71
2023/05/25 15:14:00;;;;;;;5.20;2.70;;;;;;;22.83;37.16;100672.06;10426364;28;20495;-72
2023/05/25 15:19:02;;;;;;;4.10;2.53;;;;;;;22.54;36.75;100676.88;10431577;28;20456;-71
2023/05/25 15:24:05;;;;;;;4.47;2.50;;;;;;;22.18;36.94;100680.34;10432092;28;20037;-71
2023/05/25 15:29:07;;;;;;;5.32;3.35;;;;;;;22.82;36.69;100685.59;10429537;28;20038;-71
2023/05/25 15:34:09;;;;;;;4.25;2.40;;;;;;;21.89;38.49;100676.97;10434691;28;20057;-71
2023/05/25 15:39:14;;;;;;;4.53;3.15;;;;;;;22.45;37.70;100674.84;10439454;28;20042;-72
2023/05/25 15:44:17;;;;;;;4.30;3.20;;;;;;;23.56;35.98;100664.94;10435172;28;20045;-71
2023/05/25 15:49:19;;;;;;;3.97;2.60;;;;;;;23.28;35.86;100660.78;10435717;28;20434;-73
2023/05/25 15:54:21;;;;;;;8.75;2.38;;;;;;;21.82;38.84;100662.28;10429911;28;20087;-72
2023/05/25 15:59:33;;;;;;;5.05;3.20;;;;;;;21.74;38.79;100654.78;10429457;28;20107;-73
2023/05/25 16:04:35;;;;;;;5.07;2.67;;;;;;;21.33;39.12;100649.53;10439405;22;20057;-71
2023/05/25 16:09:37;;;;;;;7.30;2.90;;;;;;;20.92;40.37;100637.91;10420906;28;20518;-71
2023/05/25 16:14:39;;;;;;;6.15;4.40;;;;;;;21.10;40.06;100638.53;10420430;28;20124;-72
2023/05/25 16:19:41;;;;;;;6.85;3.40;;;;;;;21.29;40.11;100642.66;10419616;28;20076;-71
2023/05/25 16:24:42;;;;;;;4.22;2.63;;;;;;;20.62;40.52;100630.06;10421768;28;20069;-71
2023/05/25 16:29:44;;;;;;;6.03;2.70;;;;;;;20.94;41.04;100639.63;10423444;28;20048;-72
2023/05/25 16:34:46;;;;;;;4.68;2.53;;;;;;;21.05;40.00;100632.63;10421531;28;20049;-73
2023/05/25 16:39:48;;;;;;;4.93;3.72;;;;;;;20.97;40.70;100639.44;10421743;28;20120;-72
2023/05/25 16:44:57;;;;;;;4.93;3.08;;;;;;;20.68;41.48;100636.84;10421041;28;20042;-73
2023/05/25 16:49:59;;;;;;;6.47;2.88;;;;;;;20.10;40.92;100632.50;10420874;28;20041;-73
2023/05/25 16:55:01;;;;;;;5.03;3.28;;;;;;;20.28;41.67;100628.66;10421181;28;20098;-73
2023/05/25 17:00:04;;;;;;;5.35;3.22;;;;;;;20.16;41.72;100624.09;10421589;28;20187;-72
2023/05/25 17:05:07;;;;;;;4.95;2.60;;;;;;;20.14;41.86;100621.53;10421694;28;20494;-71
2023/05/25 17:10:09;;;;;;;5.97;4.22;;;;;;;19.70;42.72;100626.91;10420184;28;20045;-73
2023/05/25 17:15:14;;;;;;;6.60;3.72;;;;;;;19.74;41.53;100627.56;10419852;28;20037;-72
2023/05/25 17:20:16;;;;;;;6.25;4.07;;;;;;;19.54;43.42;100623.41;10420771;28;20056;-73
2023/05/25 17:25:18;;;;;;;5.25;2.88;;;;;;;19.55;43.03;100628.63;10418137;28;20050;-72
2023/05/25 17:30:20;;;;;;;3.22;2.63;;;;;;;19.18;44.23;100634.44;10419390;28;20038;-72
2023/05/25 17:35:22;;;;;;;5.80;3.45;;;;;;;19.01;44.23;100630.94;10417975;28;20037;-74
2023/05/25 17:40:23;;;;;;;6.43;2.92;;;;;;;18.94;45.79;100634.88;10418205;28;20065;-71
2023/05/25 17:45:25;;;;;;;9.05;2.90;;;;;;;19.12;44.44;100633.84;10419429;28;20037;-71
2023/05/25 17:50:27;;;;;;;7.00;3.38;;;;;;;19.00;45.00;100634.53;10419783;28;20521;-72
2023/05/25 17:55:29;;;;;;;5.40;3.35;;;;;;;18.80;45.66;100637.47;10419987;28;20042;-73
2023/05/25 18:00:31;;;;;;;7.03;4.53;;;;;;;18.71;46.34;100638.00;10419159;28;20124;-72
2023/05/25 18:05:32;;;;;;;7.50;5.82;;;;;;;18.49;46.13;100641.81;10418396;28;20038;-73
2023/05/25 18:10:34;;;;;;;5.72;4.38;;;;;;;18.37;46.07;100637.13;10418740;28;20046;-73
2023/05/25 18:15:36;;;;;;;6.15;3.28;;;;;;;18.17;46.85;100640.03;10417329;28;20075;-71
2023/05/25 18:20:37;;;;;;;6.43;3.65;;;;;;;18.12;47.18;100648.25;10416188;28;20048;-72
2023/05/25 18:25:39;;;;;;;5.13;3.20;;;;;;;18.09;47.96;100656.41;10416323;28;20033;-72
2023/05/25 18:30:41;;;;;;;5.43;3.35;;;;;;;18.02;47.89;100653.22;10415480;28;20045;-71
2023/05/25 18:35:43;;;;;;;7.88;2.85;;;;;;;17.89;48.05;100654.81;10416116;28;20038;-71
2023/05/25 18:40:45;;;;;;;4.85;3.40;;;;;;;17.71;48.70;100651.28;10413787;28;20148;-72
2023/05/25 18:45:47;;;;;;;6.45;3.28;;;;;;;17.68;49.09;100659.41;10414678;28;20372;-71
2023/05/25 18:50:49;;;;;;;4.32;3.15;;;;;;;17.45;50.91;100659.72;10414923;28;20049;-71
2023/05/25 18:55:51;;;;;;;6.07;3.67;;;;;;;17.29;50.65;100670.22;10414711;28;20108;-72
2023/05/25 19:00:52;;;;;;;7.00;3.83;;;;;;;17.09;50.97;100676.53;10416892;28;20045;-71
2023/05/25 19:05:54;;;;;;;5.85;3.38;;;;;;;16.95;51.59;100682.47;10414255;28;20052;-72
2023/05/25 19:10:56;;;;;;;5.88;2.72;;;;;;;16.76;52.19;100685.16;10420924;28;20045;-71
2023/05/25 19:15:58;;;;;;;7.20;3.58;;;;;;;16.72;52.73;100682.69;10429222;28;20046;-72
2023/05/25 19:21:01;;;;;;;4.82;3.08;;;;;;;16.73;53.00;100692.41;10446271;28;20445;-72
2023/05/25 19:26:02;;;;;;;5.40;3.13;;;;;;;16.39;54.25;100700.09;10453215;28;20136;-74
2023/05/25 19:31:04;;;;;;;4.95;3.15;;;;;;;16.25;55.55;100701.66;10413818;28;20050;-72
2023/05/25 19:36:06;;;;;;;5.25;2.92;;;;;;;16.35;55.92;100718.88;10415344;28;20116;-73
2023/05/25 19:41:08;;;;;;;5.68;3.05;;;;;;;16.28;55.93;100722.72;10414999;28;20045;-72
2023/05/25 19:46:10;;;;;;;4.55;3.17;;;;;;;16.31;56.10;100719.94;10440216;28;20052;-71
2023/05/25 19:51:12;;;;;;;5.20;2.63;;;;;;;16.08;57.39;100719.16;10415062;28;20461;-72
2023/05/25 19:56:14;;;;;;;5.32;3.65;;;;;;;16.07;57.25;100722.75;10414628;28;20096;-71
2023/05/25 20:01:16;;;;;;;5.15;3.08;;;;;;;15.92;58.48;100735.81;10420318;28;20045;-71
2023/05/25 20:06:18;;;;;;;4.90;3.38;;;;;;;15.90;58.42;100733.22;10421071;28;20034;-72
2023/05/25 20:11:19;;;;;;;5.78;3.33;;;;;;;15.63;60.03;100730.78;10421779;28;20107;-73
2023/05/25 20:16:22;;;;;;;4.22;3.00;;;;;;;15.65;59.75;100736.03;10421399;28;20034;-71
2023/05/25 20:21:24;;;;;;;4.28;2.97;;;;;;;15.50;60.25;100750.75;10421333;28;20046;-72
2023/05/25 20:26:26;;;;;;;4.82;2.88;;;;;;;15.52;60.79;100751.53;10420649;28;20088;-72
2023/05/25 20:31:28;;;;;;;4.07;3.00;;;;;;;15.50;60.58;100758.72;10421331;28;20048;-71
2023/05/25 20:36:31;;;;;;;6.03;2.97;;;;;;;15.40;60.79;100759.97;10419028;28;20048;-72
2023/05/25 20:41:33;;;;;;;5.75;2.88;;;;;;;15.27;61.40;100766.69;10420219;28;20055;-73
2023/05/25 20:46:35;;;;;;;5.30;4.20;;;;;;;14.97;62.37;100758.19;10418568;28;20549;-71
2023/05/25 20:51:37;;;;;;;6.68;3.53;;;;;;;15.01;62.88;100765.94;10420279;28;20049;-71
2023/05/25 20:56:38;;;;;;;4.47;3.08;;;;;;;15.18;61.69;100767.06;10419620;28;20487;-72
2023/05/25 21:01:40;;;;;;;6.55;4.05;;;;;;;15.14;61.26;100764.53;10421137;28;20394;-72
2023/05/25 21:06:42;;;;;;;6.13;3.40;;;;;;;14.92;62.31;100784.81;10419030;28;20116;-73
2023/05/25 21:11:44;;;;;;;8.68;3.70;;;;;;;14.71;63.61;100780.34;10417673;28;20464;-72
2023/05/25 21:16:46;;;;;;;5.25;3.35;;;;;;;14.68;64.10;100786.59;10418958;28;20049;-72
2023/05/25 21:21:48;;;;;;;5.85;4.13;;;;;;;14.55;64.33;100793.25;10418893;28;20087;-72
2023/05/25 21:26:50;;;;;;;6.40;3.53;;;;;;;14.36;65.38;100793.88;10418572;28;20449;-73
2023/05/25 21:31:51;;;;;;;4.60;3.53;;;;;;;14.51;64.85;100791.63;10419077;28;20042;-72
2023/05/25 21:36:53;;;;;;;6.75;3.70;;;;;;;14.35;65.42;100794.78;10418605;28;20116;-72
2023/05/25 21:41:55;;;;;;;3.58;3.20;;;;;;;14.33;65.01;100804.53;10418869;28;20368;-71
2023/05/25 21:46:57;;;;;;;5.63;3.42;;;;;;;14.26;65.28;100802.19;10418087;28;20045;-72
2023/05/25 21:51:59;;;;;;;8.75;4.32;;;;;;;14.03;66.86;100795.91;10417707;28;20132;-71
2023/05/25 21:57:02;;;;;;;4.25;3.78;;;;;;;13.83;67.59;100803.63;10417439;28;20150;-71
2023/05/25 22:02:04;;;;;;;6.53;4.07;;;;;;;14.07;66.50;100810.72;10417740;28;20049;-71
2023/05/25 22:07:06;;;;;;;4.25;3.83;;;;;;;13.86;66.99;100812.34;10430324;23;20054;-73
2023/05/25 22:12:11;;;;;;;6.47;4.57;;;;;;;13.92;66.70;100815.69;10420964;28;20120;-70
2023/05/25 22:17:14;;;;;;;5.57;4.25;;;;;;;14.05;66.10;100819.66;10421117;28;20073;-71
2023/05/25 22:22:15;;;;;;;7.57;3.97;;;;;;;14.09;65.62;100824.78;10417796;28;20068;-71
2023/05/25 22:27:17;;;;;;;5.47;4.20;;;;;;;14.01;66.43;100818.88;10419026;28;20499;-70
2023/05/25 22:32:19;;;;;;;6.45;4.22;;;;;;;14.00;66.56;100819.81;10418206;28;20065;-70
2023/05/25 22:37:21;;;;;;;7.70;4.13;;;;;;;13.91;67.14;100822.75;10420367;28;20057;-71
2023/05/25 22:42:23;;;;;;;5.63;4.13;;;;;;;13.55;68.92;100830.94;10419289;28;20483;-71
2023/05/25 22:47:24;;;;;;;5.68;4.40;;;;;;;13.36;71.10;100835.03;10417303;28;20037;-71
2023/05/25 22:52:26;;;;;;;5.68;4.20;;;;;;;13.56;69.93;100835.31;10416152;28;20046;-71
2023/05/25 22:57:28;;;;;;;4.97;4.20;;;;;;;13.53;70.06;100832.75;10418499;28;20080;-70
2023/05/25 23:02:30;;;;;;;6.13;4.30;;;;;;;13.37;70.98;100839.44;10418400;28;20048;-71
2023/05/25 23:07:32;;;;;;;7.20;4.63;;;;;;;13.33;71.43;100837.81;10418910;28;20522;-70
2023/05/25 23:12:34;;;;;;;6.90;4.20;;;;;;;13.37;71.97;100840.31;10418527;28;20049;-71